Hebron, NE

11:17 AM CDT on July 23, 2016 (GMT -0500)
Hebron Municipal | | Change Station
Active Advisory: Excessive Heat Warning

Elev 1467 ft 40.15 °N, 97.59 °W | Updated 22 minutes ago

Clear
Clear
84 °F
Feels Like 86 °F
N
5
Wind Variable Wind from WNW

Today
High -- | Low -- °F
--% Chance of Precip.
Yesterday
High -- | Low -- °F
Precip. -- in
Pressure 29.87 in
Visibility 10.0 miles
Clouds Clear
Heat Index 86 °F
Dew Point 67 °F
Humidity 56%
Rainfall 0.00 in
Snow Depth Not available.
6:20 AM 8:52 PM
Waning Gibbous, 84% visible
METAR KHJH 231555Z AUTO 29004KT 10SM CLR 29/19 A2987 RMK AO2 T02890194
Pressure 29.87 in
Visibility 10.0 miles
Clouds Clear
Heat Index 86 °F
Dew Point 67 °F
Humidity 56%
Rainfall 0.00 in
Snow Depth Not available.
6:20 AM 8:52 PM
Waning Gibbous, 84% visible
METAR KHJH 231555Z AUTO 29004KT 10SM CLR 29/19 A2987 RMK AO2 T02890194

10-Day Weather Forecast

Almanac

Astronomy

Jul. 23, 2016 Rise Set
Actual Time
Civil Twilight
Nautical Twilight
Astronomical Twilight
Moon
Length of Visible Light
Length of Day
Tomorrow will be .
, % of the Moon is Illuminated

Today's Extremes

State Highs State Lows

Community

WunderPhotos

Upload Photos

1,926,857 photos uploaded!

WunderBlog® & News

Nearby

Air Quality

  Air Quality AQ Index Pollutant
Not available.

Snow Depth

Station Depth Elevation

Earthquake Activity

City Distance Mag. Time & Date
Minimum magnitude displayed is 2.5.

Coastal Water Temperatures

Place Temperature

Stations

Nearby Weather Stations

Station Location Temp. Windchill Dew Point Humidity Wind Precip. Elev Updated Type
                   

Watches & Warnings

Excessive Heat Warning
Issued: 3:29 AM CDT Jul. 23, 2016 – National Weather Service

... Excessive heat warning remains in effect until 7 PM CDT this
evening...

* hazard... dangerous heat.

* Heat index... the heat index will peak between 100 and 107
degrees today.

* Impacts... the prolonged heat and humidity will combine to
create a dangerous situation which could lead to heat related
illnesses.

Precautionary/preparedness actions...

An excessive heat warning means that a prolonged period of
dangerously hot temperatures will occur. The combination of hot
temperatures and high humidity will combine to create a dangerous
situation in which heat illnesses are likely. Drink plenty of
fluids... stay in an air-conditioned room... stay out of the sun...
and check up on relatives and neighbors.